Time;durP1;ratioP1;P1;durP2;ratioP2;P2;SDS_P1;SDS_P2;PMS_P1;PMS_P2;Temp;Humidity;BMP_temperature;BMP_pressure;BME280_temperature;BME280_humidity;BME280_pressure;Samples;Min_cycle;Max_cycle;Signal;HPM_P1;HPM_P2
2023/09/21 00:00:33;;;;;;;3.50;2.22;;;;;;;19.10;62.17;99871.75;5081034;28;20753;-69
2023/09/21 00:02:59;;;;;;;3.88;2.42;;;;;;;19.10;62.27;99875.41;5084531;28;20107;-69
2023/09/21 00:05:29;;;;;;;4.10;2.30;;;;;;;19.10;62.33;99871.75;5073078;28;20499;-69
2023/09/21 00:07:55;;;;;;;3.80;2.25;;;;;;;19.04;62.39;99864.66;5081839;28;20072;-69
2023/09/21 00:10:20;;;;;;;3.42;2.03;;;;;;;19.05;62.09;99872.75;5091718;28;20099;-69
2023/09/21 00:12:47;;;;;;;2.85;2.30;;;;;;;19.03;62.30;99863.81;5090741;28;20523;-69
2023/09/21 00:15:21;;;;;;;4.32;2.40;;;;;;;19.01;62.41;99871.75;5090055;28;20403;-69
2023/09/21 00:17:51;;;;;;;4.70;2.33;;;;;;;19.02;62.40;99869.75;5076462;28;20048;-69
2023/09/21 00:20:28;;;;;;;3.13;2.67;;;;;;;19.06;62.59;99862.31;5083551;28;20024;-69
2023/09/21 00:22:54;;;;;;;5.55;2.28;;;;;;;19.05;62.19;99857.84;5074490;28;20064;-69
2023/09/21 00:25:22;;;;;;;5.13;2.30;;;;;;;19.05;62.49;99852.22;5070978;28;20476;-69
2023/09/21 00:27:47;;;;;;;3.13;1.85;;;;;;;19.06;62.37;99848.25;5084170;28;20060;-70
2023/09/21 00:30:13;;;;;;;3.75;2.08;;;;;;;19.07;62.28;99847.94;5090020;28;20055;-70
2023/09/21 00:32:38;;;;;;;5.82;2.55;;;;;;;19.04;62.10;99840.16;5090351;28;20464;-70
2023/09/21 00:35:09;;;;;;;4.25;2.08;;;;;;;19.00;62.07;99832.72;5084198;28;20029;-69
2023/09/21 00:37:35;;;;;;;3.22;2.20;;;;;;;18.97;62.04;99822.16;5072527;28;20119;-69
2023/09/21 00:40:00;;;;;;;2.97;2.03;;;;;;;18.98;62.11;99829.41;5074306;28;20507;-69
2023/09/21 00:42:25;;;;;;;3.67;2.40;;;;;;;18.94;62.33;99828.44;5074897;28;20024;-69
2023/09/21 00:44:51;;;;;;;3.67;2.20;;;;;;;18.96;62.27;99823.31;5074844;28;20150;-69
2023/09/21 00:47:17;;;;;;;3.15;2.20;;;;;;;19.00;62.14;99816.69;5084069;28;20122;-69
2023/09/21 00:49:45;;;;;;;3.60;2.50;;;;;;;19.01;62.09;99809.06;5095101;28;20152;-70
2023/09/21 00:52:12;;;;;;;3.47;1.98;;;;;;;19.02;62.22;99807.91;5090875;28;20032;-70
2023/09/21 00:54:41;;;;;;;3.08;2.13;;;;;;;19.04;62.00;99811.22;5092293;28;20383;-69
2023/09/21 00:57:11;;;;;;;3.22;2.25;;;;;;;19.02;61.99;99807.91;5094964;28;20081;-70
2023/09/21 00:59:41;;;;;;;5.03;2.25;;;;;;;19.01;61.77;99804.25;5095036;28;20098;-69
2023/09/21 01:02:07;;;;;;;3.53;2.20;;;;;;;19.02;61.53;99803.13;5093145;28;20059;-69
2023/09/21 01:04:33;;;;;;;2.92;1.90;;;;;;;19.05;61.60;99795.97;5092494;28;20032;-70
2023/09/21 01:06:59;;;;;;;3.92;1.95;;;;;;;19.02;61.42;99789.06;5088071;28;20024;-69
2023/09/21 01:09:25;;;;;;;2.35;1.98;;;;;;;19.02;61.23;99782.59;5088306;28;20153;-70
2023/09/21 01:11:51;;;;;;;2.97;1.90;;;;;;;19.02;61.02;99779.78;5094787;28;20035;-70
2023/09/21 01:14:16;;;;;;;5.72;2.10;;;;;;;19.03;61.14;99781.44;5094694;28;20032;-70
2023/09/21 01:16:41;;;;;;;2.95;2.30;;;;;;;19.03;60.80;99775.81;5093557;28;20048;-70
2023/09/21 01:19:07;;;;;;;3.58;1.80;;;;;;;19.03;60.73;99781.44;5092290;28;20051;-70
2023/09/21 01:21:42;;;;;;;2.83;1.90;;;;;;;19.07;60.19;99765.53;5085364;28;20032;-70
2023/09/21 01:24:11;;;;;;;3.00;2.20;;;;;;;19.06;60.13;99770.34;5089523;28;20020;-70
2023/09/21 01:26:36;;;;;;;3.88;2.00;;;;;;;19.06;60.02;99761.91;5088906;28;20036;-70
2023/09/21 01:29:04;;;;;;;3.38;1.88;;;;;;;19.08;60.02;99755.94;5074021;28;20028;-70
2023/09/21 01:31:30;;;;;;;3.15;1.88;;;;;;;19.08;59.55;99755.94;5080464;28;20468;-69
2023/09/21 01:33:58;;;;;;;1.90;1.75;;;;;;;19.07;60.00;99757.94;5074634;28;20020;-69
2023/09/21 01:36:23;;;;;;;3.15;2.03;;;;;;;19.09;59.63;99747.16;5092005;28;20142;-70
2023/09/21 01:38:50;;;;;;;2.28;1.88;;;;;;;19.12;59.80;99751.28;5092189;28;20111;-69
2023/09/21 01:41:21;;;;;;;4.47;2.13;;;;;;;19.09;59.78;99741.53;5076625;28;20464;-70
2023/09/21 01:43:47;;;;;;;4.35;2.05;;;;;;;19.12;59.52;99740.03;5074651;28;20103;-70
2023/09/21 01:46:17;;;;;;;3.47;2.30;;;;;;;19.13;59.32;99736.06;5073749;28;20586;-70
2023/09/21 01:48:43;;;;;;;2.85;2.10;;;;;;;19.14;59.41;99737.72;5073475;28;20037;-70
2023/09/21 01:51:08;;;;;;;3.50;1.85;;;;;;;19.15;59.34;99730.13;5078960;28;20024;-69
2023/09/21 01:53:33;;;;;;;4.38;1.90;;;;;;;19.16;59.59;99729.75;5093927;28;20509;-70
2023/09/21 01:55:58;;;;;;;2.42;1.65;;;;;;;19.18;59.34;99738.69;5093819;28;20067;-70
2023/09/21 01:58:24;;;;;;;5.43;1.70;;;;;;;19.18;59.41;99726.59;5091658;28;20040;-69
2023/09/21 02:00:50;;;;;;;3.70;1.90;;;;;;;19.17;58.74;99730.59;5074695;28;20025;-70
2023/09/21 02:03:22;;;;;;;2.42;1.85;;;;;;;19.17;59.41;99722.97;5074539;28;20024;-70
2023/09/21 02:05:50;;;;;;;2.40;1.98;;;;;;;19.18;58.87;99720.97;5072852;28;20109;-69
2023/09/21 02:08:19;;;;;;;4.28;2.10;;;;;;;19.16;58.95;99728.94;5073333;28;20387;-70
2023/09/21 02:10:49;;;;;;;2.13;1.92;;;;;;;19.17;58.95;99720.16;5078396;28;20484;-70
2023/09/21 02:13:15;;;;;;;5.88;2.03;;;;;;;19.16;58.92;99724.13;5072611;28;20380;-69
2023/09/21 02:15:41;;;;;;;3.28;1.90;;;;;;;19.15;59.15;99722.50;5087241;28;20032;-70
2023/09/21 02:18:10;;;;;;;2.15;1.60;;;;;;;19.16;59.26;99718.50;5082216;28;20059;-70
2023/09/21 02:20:38;;;;;;;2.33;1.90;;;;;;;19.14;59.32;99715.22;5093538;28;20383;-70
2023/09/21 02:23:05;;;;;;;3.15;1.88;;;;;;;19.13;59.02;99719.19;5093344;28;20333;-70
2023/09/21 02:25:38;;;;;;;5.45;2.40;;;;;;;19.11;59.33;99708.28;5091491;28;20415;-70
2023/09/21 02:28:09;;;;;;;2.95;2.00;;;;;;;19.11;59.20;99697.03;5076155;28;20044;-70
2023/09/21 02:30:37;;;;;;;3.22;1.60;;;;;;;19.09;59.49;99704.16;5072953;28;20036;-69
2023/09/21 02:33:04;;;;;;;2.22;1.77;;;;;;;19.10;59.13;99703.00;5082353;28;20024;-70
2023/09/21 02:35:33;;;;;;;5.07;2.20;;;;;;;19.08;59.36;99694.06;5105041;28;20055;-69
2023/09/21 02:37:59;;;;;;;3.72;1.80;;;;;;;19.08;59.43;99694.88;5113539;28;20036;-70
2023/09/21 02:40:25;;;;;;;3.15;1.75;;;;;;;19.09;59.34;99699.34;5112972;28;20027;-69
2023/09/21 02:42:52;;;;;;;3.67;1.95;;;;;;;19.10;59.48;99694.56;5084189;28;20028;-70
2023/09/21 02:45:19;;;;;;;3.17;1.80;;;;;;;19.07;59.47;99703.69;5072809;28;20028;-70
2023/09/21 02:47:46;;;;;;;3.13;2.13;;;;;;;19.06;59.34;99697.22;5085004;28;20099;-70
2023/09/21 02:50:19;;;;;;;1.70;1.48;;;;;;;19.07;59.60;99692.44;5092839;28;20531;-69
2023/09/21 02:52:46;;;;;;;3.53;2.00;;;;;;;19.06;59.43;99696.38;5074653;28;20028;-69
2023/09/21 02:55:26;;;;;;;4.82;2.28;;;;;;;19.04;59.82;99693.91;5071742;28;20044;-69
2023/09/21 02:58:10;;;;;;;3.42;2.08;;;;;;;19.06;59.74;99696.38;5072642;28;20040;-70
2023/09/21 03:00:39;;;;;;;3.10;1.88;;;;;;;19.07;59.64;99692.44;5072556;28;20123;-70
2023/09/21 03:03:06;;;;;;;2.38;1.77;;;;;;;19.05;59.39;99686.31;5092444;28;20079;-71
2023/09/21 03:05:34;;;;;;;2.88;1.90;;;;;;;19.05;59.44;99689.94;5092692;28;20027;-71
2023/09/21 03:08:13;;;;;;;2.70;1.90;;;;;;;19.02;59.29;99678.53;5085150;28;20051;-71
2023/09/21 03:10:49;;;;;;;3.97;2.10;;;;;;;19.02;59.74;99678.53;5089520;28;20115;-71
2023/09/21 03:13:17;;;;;;;4.10;1.83;;;;;;;19.00;59.82;99676.06;5088588;28;20025;-71
2023/09/21 03:15:59;;;;;;;1.95;1.73;;;;;;;19.01;59.62;99674.09;5090217;28;20048;-70
2023/09/21 03:18:27;;;;;;;3.70;2.03;;;;;;;19.03;59.62;99674.59;5092381;28;20047;-71
2023/09/21 03:20:53;;;;;;;2.83;2.10;;;;;;;19.03;59.84;99680.19;5089941;28;20125;-70
2023/09/21 03:23:20;;;;;;;2.38;2.10;;;;;;;19.02;59.60;99672.91;5090974;28;20070;-70
2023/09/21 03:25:47;;;;;;;2.53;2.05;;;;;;;19.01;59.94;99669.28;5087994;28;20390;-70
2023/09/21 03:28:14;;;;;;;3.15;2.00;;;;;;;19.04;59.94;99676.22;5091912;28;20036;-70
2023/09/21 03:30:41;;;;;;;6.30;1.80;;;;;;;19.03;59.92;99668.97;5089097;28;20028;-70
2023/09/21 03:33:07;;;;;;;3.63;2.13;;;;;;;19.03;59.77;99675.41;5092126;28;20072;-71
2023/09/21 03:35:33;;;;;;;2.75;1.73;;;;;;;19.07;59.94;99665.13;5083551;28;20479;-70
2023/09/21 03:37:59;;;;;;;2.65;1.80;;;;;;;19.06;59.97;99674.72;5090818;28;20039;-70
2023/09/21 03:40:30;;;;;;;3.58;1.90;;;;;;;19.05;60.09;99666.63;5079135;28;20020;-70
2023/09/21 03:42:55;;;;;;;3.23;2.03;;;;;;;19.05;59.85;99673.06;5091404;28;20032;-70
2023/09/21 03:45:25;;;;;;;4.07;2.13;;;;;;;19.06;59.96;99671.91;5091717;28;20387;-70
2023/09/21 03:47:51;;;;;;;3.92;1.98;;;;;;;19.04;60.01;99659.34;5091861;28;20035;-70
2023/09/21 03:50:18;;;;;;;3.05;1.90;;;;;;;19.04;59.87;99662.16;5089742;28;20024;-70
2023/09/21 03:52:43;;;;;;;4.75;2.30;;;;;;;19.05;59.98;99659.00;5084607;28;20036;-70
2023/09/21 03:55:18;;;;;;;2.47;2.00;;;;;;;19.02;59.92;99658.84;5071208;28;20376;-70
2023/09/21 03:57:47;;;;;;;2.88;1.83;;;;;;;19.04;60.08;99653.72;5072035;28;20476;-70
2023/09/21 04:03:02;;;;;;;3.75;1.70;;;;;;;19.04;60.28;99642.47;5083757;28;20048;-70
2023/09/21 04:05:31;;;;;;;4.60;2.10;;;;;;;19.02;60.12;99645.63;5074126;28;20028;-70
2023/09/21 04:07:59;;;;;;;5.22;2.30;;;;;;;19.02;60.37;99650.41;5071206;28;20479;-70
2023/09/21 04:10:28;;;;;;;2.65;1.90;;;;;;;19.01;60.41;99645.97;5071397;28;20024;-70
2023/09/21 04:12:56;;;;;;;3.03;1.98;;;;;;;19.03;60.40;99647.28;5088851;28;20032;-70
2023/09/21 04:15:30;;;;;;;3.90;2.08;;;;;;;19.04;60.50;99648.09;5090437;28;20480;-71
2023/09/21 04:17:57;;;;;;;4.18;1.85;;;;;;;19.02;60.48;99651.25;5084174;28;20102;-70
2023/09/21 04:20:23;;;;;;;3.72;2.03;;;;;;;19.04;60.75;99648.09;5089408;28;20032;-70
2023/09/21 04:22:49;;;;;;;3.67;1.90;;;;;;;19.00;61.31;99642.31;5071326;28;20529;-70
2023/09/21 04:25:16;;;;;;;3.55;2.20;;;;;;;18.99;60.97;99635.06;5070471;28;20024;-70
2023/09/21 04:27:44;;;;;;;3.92;1.95;;;;;;;18.98;61.06;99650.28;5071035;28;20528;-70
2023/09/21 04:30:14;;;;;;;4.28;1.80;;;;;;;19.01;60.90;99646.78;5074036;28;20090;-70
2023/09/21 04:32:46;;;;;;;3.95;1.88;;;;;;;19.03;60.93;99646.47;5070328;28;20036;-70
2023/09/21 04:35:15;;;;;;;3.17;1.98;;;;;;;19.02;60.89;99642.81;5077996;28;20028;-70
2023/09/21 04:37:43;;;;;;;3.55;1.73;;;;;;;19.01;60.98;99643.16;5071010;28;20028;-70
2023/09/21 04:40:10;;;;;;;4.35;2.40;;;;;;;19.01;60.89;99637.53;5070251;28;20021;-70
2023/09/21 04:42:40;;;;;;;5.10;2.05;;;;;;;19.02;61.26;99639.16;5071117;28;20025;-70
2023/09/21 04:45:10;;;;;;;3.72;2.08;;;;;;;18.98;61.05;99644.66;5086525;28;20114;-71
2023/09/21 04:47:47;;;;;;;5.15;2.25;;;;;;;18.98;61.28;99635.38;5089383;28;20387;-70
2023/09/21 04:50:14;;;;;;;5.68;2.53;;;;;;;18.97;61.43;99628.13;5090175;28;20035;-71
2023/09/21 04:52:39;;;;;;;2.58;1.83;;;;;;;18.99;62.03;99639.88;5089222;28;20425;-72
2023/09/21 04:55:08;;;;;;;4.78;2.33;;;;;;;18.98;62.29;99624.13;5085344;28;20023;-71
2023/09/21 04:57:34;;;;;;;2.53;2.03;;;;;;;18.99;62.55;99631.44;5090948;28;20035;-70
2023/09/21 04:59:59;;;;;;;2.78;2.00;;;;;;;18.96;62.55;99626.47;5085396;28;20535;-70
2023/09/21 05:02:25;;;;;;;3.95;2.30;;;;;;;18.94;62.90;99628.78;5077249;28;20057;-70
2023/09/21 05:04:51;;;;;;;2.88;2.20;;;;;;;18.92;63.30;99631.94;5070885;28;20033;-70
2023/09/21 05:07:17;;;;;;;3.95;2.00;;;;;;;18.94;63.38;99635.22;5070231;28;20108;-70
2023/09/21 05:09:46;;;;;;;4.72;2.20;;;;;;;18.95;63.12;99634.09;5088196;28;20205;-70
2023/09/21 05:12:12;;;;;;;4.90;2.03;;;;;;;18.97;63.45;99623.31;5089819;28;20752;-70
2023/09/21 05:14:38;;;;;;;3.28;1.95;;;;;;;18.97;63.21;99608.44;5090369;28;20129;-70
2023/09/21 05:17:05;;;;;;;3.35;2.20;;;;;;;19.00;63.18;99604.94;5083851;28;20044;-70
2023/09/21 05:19:37;;;;;;;3.25;2.10;;;;;;;18.95;63.35;99611.59;5090154;28;20416;-70
2023/09/21 05:22:05;;;;;;;2.78;2.15;;;;;;;18.96;63.34;99616.06;5088912;28;20391;-72
2023/09/21 05:24:32;;;;;;;5.00;1.95;;;;;;;18.96;63.26;99615.22;5090669;28;20059;-69
2023/09/21 05:26:58;;;;;;;5.18;2.25;;;;;;;18.99;63.21;99612.56;5093745;28;20031;-69
2023/09/21 05:29:23;;;;;;;3.85;2.40;;;;;;;19.00;63.20;99613.38;5093372;28;20020;-69
2023/09/21 05:31:49;;;;;;;4.72;2.22;;;;;;;18.99;63.37;99606.13;5092244;28;20515;-69
2023/09/21 05:34:15;;;;;;;3.70;2.20;;;;;;;18.99;62.92;99618.19;5084772;28;20036;-69
2023/09/21 05:36:44;;;;;;;4.13;2.30;;;;;;;19.00;63.08;99613.38;5080033;28;20028;-75
2023/09/21 05:39:09;;;;;;;3.53;2.40;;;;;;;19.00;63.33;99616.19;5091679;28;20024;-71
2023/09/21 05:41:34;;;;;;;6.30;2.25;;;;;;;19.00;63.32;99611.41;5089365;28;20063;-72
2023/09/21 05:44:00;;;;;;;4.22;2.05;;;;;;;19.02;63.35;99617.50;5084202;28;20136;-72
2023/09/21 05:46:25;;;;;;;3.65;1.90;;;;;;;19.03;63.48;99607.09;5074852;28;20036;-72
2023/09/21 05:48:51;;;;;;;3.10;2.10;;;;;;;19.04;63.74;99608.72;5077944;28;20463;-71
2023/09/21 05:51:17;;;;;;;4.43;2.20;;;;;;;19.05;63.63;99607.56;5090053;28;20089;-71
2023/09/21 05:53:42;;;;;;;3.10;1.90;;;;;;;19.06;63.89;99612.84;5093917;28;20390;-71
2023/09/21 05:56:08;;;;;;;3.40;2.50;;;;;;;19.09;63.90;99612.16;5080341;28;20070;-71
2023/09/21 05:58:33;;;;;;;3.20;1.90;;;;;;;19.08;64.66;99612.50;5073977;28;20036;-72
2023/09/21 06:01:02;;;;;;;3.10;2.38;;;;;;;19.07;64.65;99610.88;5090057;28;20162;-70
2023/09/21 06:03:28;;;;;;;4.03;2.05;;;;;;;19.07;65.05;99620.13;5091988;28;20020;-70
2023/09/21 06:05:54;;;;;;;7.88;2.75;;;;;;;19.06;65.58;99612.00;5087509;28;20028;-72
2023/09/21 06:08:19;;;;;;;3.20;2.38;;;;;;;19.05;65.39;99613.19;5081336;28;20414;-69
2023/09/21 06:10:46;;;;;;;2.72;2.20;;;;;;;19.00;66.39;99619.00;5077521;28;20383;-70
2023/09/21 06:13:12;;;;;;;3.15;2.40;;;;;;;19.01;66.04;99620.66;5092195;28;20028;-70
2023/09/21 06:15:47;;;;;;;3.95;2.20;;;;;;;18.99;66.15;99623.00;5083317;28;20035;-70
2023/09/21 06:18:14;;;;;;;5.18;2.50;;;;;;;18.94;66.60;99631.59;5080308;28;20036;-70
2023/09/21 06:20:41;;;;;;;2.55;2.28;;;;;;;18.93;67.10;99629.97;5087712;28;20093;-69
2023/09/21 06:23:06;;;;;;;2.88;2.30;;;;;;;18.86;67.99;99631.31;5088354;28;20447;-69
2023/09/21 06:25:34;;;;;;;3.47;2.50;;;;;;;18.82;67.90;99624.75;5087486;28;20099;-70
2023/09/21 06:28:00;;;;;;;4.88;2.63;;;;;;;18.81;68.47;99627.88;5090891;28;20499;-70
2023/09/21 06:30:25;;;;;;;4.55;2.42;;;;;;;18.82;68.98;99624.75;5080779;28;20024;-69
2023/09/21 06:32:50;;;;;;;3.67;2.60;;;;;;;18.77;69.71;99630.53;5078459;28;20024;-70
2023/09/21 06:35:16;;;;;;;3.90;2.25;;;;;;;18.80;69.36;99632.66;5082944;28;20036;-68
2023/09/21 06:37:41;;;;;;;3.75;2.28;;;;;;;18.76;69.43;99634.50;5083369;28;20036;-69
2023/09/21 06:40:10;;;;;;;3.40;2.47;;;;;;;18.71;70.44;99631.91;5076183;28;20103;-71
2023/09/21 06:42:35;;;;;;;6.68;2.55;;;;;;;18.63;70.08;99627.09;5080374;28;20020;-71
2023/09/21 06:45:01;;;;;;;3.92;2.67;;;;;;;18.60;70.71;99627.78;5091862;28;20024;-69
2023/09/21 06:47:28;;;;;;;3.63;2.60;;;;;;;18.56;71.10;99632.41;5084871;28;20416;-71
2023/09/21 06:49:54;;;;;;;6.03;2.75;;;;;;;18.60;71.58;99639.00;5069933;28;20032;-70
2023/09/21 06:52:21;;;;;;;5.70;2.55;;;;;;;18.57;71.97;99646.13;5068066;28;20039;-70
2023/09/21 06:54:48;;;;;;;3.33;2.67;;;;;;;18.58;72.43;99653.38;5080512;28;20047;-70
2023/09/21 06:57:13;;;;;;;3.15;2.28;;;;;;;18.64;72.18;99656.84;5086767;28;20032;-70
2023/09/21 06:59:39;;;;;;;3.75;2.63;;;;;;;18.60;72.93;99664.31;5088576;28;20832;-69
2023/09/21 07:02:04;;;;;;;5.75;3.00;;;;;;;18.57;72.94;99657.38;5086565;28;20130;-70
2023/09/21 07:04:33;;;;;;;3.97;2.50;;;;;;;18.55;73.69;99653.22;5082731;28;20467;-69
2023/09/21 07:07:05;;;;;;;4.50;2.67;;;;;;;18.49;73.54;99652.59;5084169;28;20084;-71
2023/09/21 07:09:37;;;;;;;3.67;2.60;;;;;;;18.44;74.48;99663.19;5077487;28;20157;-72
2023/09/21 07:12:04;;;;;;;3.97;2.88;;;;;;;18.41;75.26;99653.44;5080996;28;20020;-71
2023/09/21 07:14:32;;;;;;;6.30;2.63;;;;;;;18.32;75.60;99656.28;5076872;28;20026;-72
2023/09/21 07:16:59;;;;;;;5.43;2.63;;;;;;;18.40;75.30;99652.63;5081600;28;20055;-71
2023/09/21 07:19:24;;;;;;;4.13;2.95;;;;;;;18.31;75.88;99645.38;5087749;28;20052;-69
2023/09/21 07:21:49;;;;;;;4.88;2.60;;;;;;;18.31;76.04;99640.59;5084535;28;20082;-69
2023/09/21 07:24:15;;;;;;;4.63;2.95;;;;;;;18.22;76.65;99645.38;5090164;28;20032;-71
2023/09/21 07:26:45;;;;;;;5.03;2.80;;;;;;;18.28;76.37;99638.44;5082641;28;20028;-70
2023/09/21 07:29:12;;;;;;;4.22;2.85;;;;;;;18.27;77.22;99641.56;5080532;28;20467;-72
2023/09/21 07:31:37;;;;;;;5.88;2.47;;;;;;;18.33;76.45;99629.84;5079469;28;20040;-70
2023/09/21 07:34:03;;;;;;;5.20;2.65;;;;;;;18.38;76.22;99640.88;5090862;28;20050;-71
2023/09/21 07:36:28;;;;;;;3.42;2.53;;;;;;;18.34;76.75;99642.72;5084041;28;20055;-70
2023/09/21 07:38:55;;;;;;;4.70;3.40;;;;;;;18.35;76.97;99640.72;5089344;28;20039;-67
2023/09/21 07:41:21;;;;;;;4.95;3.08;;;;;;;18.37;77.24;99642.06;5090556;28;20471;-69
2023/09/21 07:43:48;;;;;;;5.57;3.13;;;;;;;18.40;77.07;99651.81;5090111;28;20039;-70
2023/09/21 07:46:13;;;;;;;5.57;2.97;;;;;;;18.39;76.60;99644.50;5090409;28;20039;-69
2023/09/21 07:48:39;;;;;;;4.25;3.03;;;;;;;18.36;76.52;99651.66;5087424;28;20317;-70
2023/09/21 07:51:06;;;;;;;4.57;3.15;;;;;;;18.36;77.00;99651.66;5077154;28;20028;-70
2023/09/21 07:53:32;;;;;;;5.78;2.55;;;;;;;18.39;76.89;99656.59;5069086;28;20160;-69
2023/09/21 07:56:04;;;;;;;3.45;2.78;;;;;;;18.43;77.58;99648.34;5088806;28;20024;-70
2023/09/21 07:58:30;;;;;;;7.03;3.38;;;;;;;18.44;77.52;99652.78;5070227;28;20135;-70
2023/09/21 08:00:55;;;;;;;5.28;3.05;;;;;;;18.44;77.74;99651.97;5070440;28;20166;-70
2023/09/21 08:03:25;;;;;;;5.80;3.20;;;;;;;18.44;77.74;99652.78;5069598;28;20043;-69
2023/09/21 08:05:53;;;;;;;4.30;2.72;;;;;;;18.47;77.79;99659.69;5082768;28;20024;-69
2023/09/21 08:08:19;;;;;;;6.43;3.25;;;;;;;18.42;78.08;99676.75;5090183;28;20043;-70
2023/09/21 08:10:45;;;;;;;6.57;3.08;;;;;;;18.44;78.58;99668.81;5087166;28;20434;-69
2023/09/21 08:13:10;;;;;;;4.28;2.72;;;;;;;18.43;78.41;99678.38;5089322;28;20063;-70
2023/09/21 08:15:36;;;;;;;4.22;3.20;;;;;;;18.44;78.96;99685.69;5090303;28;20090;-70
2023/09/21 08:18:02;;;;;;;3.50;2.83;;;;;;;18.38;78.69;99688.63;5089033;28;20048;-70
2023/09/21 08:20:28;;;;;;;3.65;2.78;;;;;;;18.42;78.22;99682.38;5088393;28;20503;-70
2023/09/21 08:22:56;;;;;;;4.10;2.53;;;;;;;18.41;78.17;99675.91;5089480;28;20039;-71
2023/09/21 08:25:21;;;;;;;4.40;2.75;;;;;;;18.35;78.66;99689.34;5089377;28;20024;-70
2023/09/21 08:27:46;;;;;;;4.20;3.05;;;;;;;18.38;78.52;99705.50;5090393;28;20368;-69
2023/09/21 08:30:15;;;;;;;4.80;2.70;;;;;;;18.36;78.61;99702.22;5080527;28;20271;-70
2023/09/21 08:32:41;;;;;;;3.13;2.35;;;;;;;18.33;78.92;99714.09;5087344;28;20055;-70
2023/09/21 08:35:07;;;;;;;2.92;2.67;;;;;;;18.32;78.62;99722.88;5088629;28;20059;-70
2023/09/21 08:37:33;;;;;;;4.53;2.70;;;;;;;18.29;78.49;99713.13;5090240;28;20089;-70
2023/09/21 08:39:58;;;;;;;3.20;2.65;;;;;;;18.27;78.97;99725.84;5089201;28;20108;-70
2023/09/21 08:42:25;;;;;;;5.20;2.80;;;;;;;18.26;78.88;99727.00;5090257;28;20031;-70
2023/09/21 08:44:51;;;;;;;4.72;2.55;;;;;;;18.21;78.66;99728.00;5089297;28;20024;-70
2023/09/21 08:47:17;;;;;;;2.47;2.17;;;;;;;18.22;78.50;99729.66;5085237;28;20100;-70
2023/09/21 08:49:46;;;;;;;3.00;2.10;;;;;;;18.19;78.33;99741.53;5087509;28;20032;-70
2023/09/21 08:52:13;;;;;;;2.33;1.80;;;;;;;18.19;78.45;99740.72;5089240;28;20790;-70
2023/09/21 08:54:40;;;;;;;1.90;1.70;;;;;;;18.20;78.00;99748.84;5090097;28;20483;-70
2023/09/21 08:57:13;;;;;;;2.70;1.85;;;;;;;18.15;78.37;99740.56;5089661;28;20035;-70
2023/09/21 08:59:45;;;;;;;4.05;2.08;;;;;;;18.16;78.51;99745.03;5090874;28;20028;-70
2023/09/21 09:02:16;;;;;;;;;;;;;;;18.32;76.25;99734.94;5089460;28;20020;-70
2023/09/21 09:04:42;;;;;;;5.60;1.60;;;;;;;18.19;77.18;99735.94;5087455;28;20002;-68
2023/09/21 09:07:08;;;;;;;3.30;1.80;;;;;;;18.15;77.32;99735.75;5093165;28;20169;-68
2023/09/21 09:09:34;;;;;;;3.30;2.00;;;;;;;18.10;77.34;99716.28;5089891;28;20032;-70
2023/09/21 09:12:00;;;;;;;2.35;1.70;;;;;;;18.12;76.84;99730.00;5091117;28;20032;-69
2023/09/21 09:14:25;;;;;;;2.53;1.70;;;;;;;18.08;76.02;99743.88;5090456;28;20404;-68
2023/09/21 09:16:51;;;;;;;5.00;1.80;;;;;;;18.03;76.83;99735.59;5089451;28;20400;-69
2023/09/21 09:19:16;;;;;;;2.78;1.80;;;;;;;18.09;76.21;99744.69;5091045;28;20448;-69
2023/09/21 09:21:42;;;;;;;2.42;1.42;;;;;;;18.05;77.10;99735.28;5082272;28;20036;-69
2023/09/21 09:24:14;;;;;;;3.10;1.15;;;;;;;18.04;76.43;99739.25;5090442;28;20031;-68
2023/09/21 09:26:39;;;;;;;3.58;1.70;;;;;;;18.05;76.77;99722.06;5090853;28;20032;-68
2023/09/21 09:29:11;;;;;;;2.80;1.40;;;;;;;18.00;76.90;99710.16;5089923;28;20039;-68
2023/09/21 09:31:40;;;;;;;1.52;1.40;;;;;;;18.06;76.92;99720.91;5089870;28;20107;-68
2023/09/21 09:34:05;;;;;;;2.35;1.60;;;;;;;18.04;75.87;99720.44;5088315;28;20028;-69
2023/09/21 09:36:35;;;;;;;3.15;1.73;;;;;;;18.09;75.93;99713.81;5080896;28;20391;-68
2023/09/21 09:39:00;;;;;;;4.20;1.80;;;;;;;18.07;76.63;99707.69;5090369;28;20028;-68
2023/09/21 09:41:27;;;;;;;2.15;1.67;;;;;;;18.09;76.00;99716.63;5087433;28;20024;-67
2023/09/21 09:43:59;;;;;;;2.67;1.65;;;;;;;18.09;77.04;99702.56;5086559;28;20112;-69
2023/09/21 09:46:25;;;;;;;;;;;;;;;18.27;75.50;99703.38;5090456;28;20464;-68
2023/09/21 09:48:58;;;;;;;2.38;1.73;;;;;;;18.15;76.67;99706.84;5089511;28;19923;-69
2023/09/21 09:51:30;;;;;;;1.88;1.75;;;;;;;18.14;77.22;99713.63;5090405;28;20036;-70
2023/09/21 09:53:59;;;;;;;2.10;1.77;;;;;;;18.12;77.25;99715.97;5089481;28;20024;-69
2023/09/21 09:56:25;;;;;;;2.33;2.00;;;;;;;18.17;76.69;99710.16;5112661;28;20080;-69
2023/09/21 09:58:52;;;;;;;3.50;2.10;;;;;;;18.18;77.40;99703.38;5105156;27;20492;-69
2023/09/21 10:01:33;;;;;;;4.07;2.00;;;;;;;18.15;78.53;99706.84;5089462;28;20040;-69
2023/09/21 10:04:00;;;;;;;4.70;2.40;;;;;;;18.18;78.53;99700.56;5091756;28;20028;-69
2023/09/21 10:06:27;;;;;;;4.53;2.35;;;;;;;18.20;78.23;99692.66;5095122;28;20467;-69
2023/09/21 10:08:56;;;;;;;5.30;2.78;;;;;;;18.23;78.77;99694.78;5092232;28;20479;-69
2023/09/21 10:11:25;;;;;;;4.38;2.97;;;;;;;18.26;78.55;99684.88;5086291;28;20085;-70
2023/09/21 10:13:53;;;;;;;5.60;2.70;;;;;;;18.28;78.95;99688.19;5091776;28;20039;-69
2023/09/21 10:16:19;;;;;;;4.15;3.03;;;;;;;18.29;79.43;99687.03;5086497;28;20558;-69
2023/09/21 10:18:45;;;;;;;3.75;2.83;;;;;;;18.29;79.37;99685.03;5087720;28;20039;-70
2023/09/21 10:21:22;;;;;;;6.03;3.17;;;;;;;18.30;79.80;99669.00;5089496;28;20024;-67
2023/09/21 10:23:59;;;;;;;4.03;3.63;;;;;;;18.33;79.58;99682.38;5107531;28;20057;-67
2023/09/21 10:26:39;;;;;;;7.05;3.17;;;;;;;18.31;81.26;99674.31;5108495;28;20474;-67
2023/09/21 10:29:07;;;;;;;4.60;3.13;;;;;;;18.32;81.41;99677.94;5087695;28;20061;-65
2023/09/21 10:31:34;;;;;;;4.15;3.10;;;;;;;18.34;81.47;99684.03;5090897;28;20048;-68
2023/09/21 10:34:00;;;;;;;3.67;2.80;;;;;;;18.34;81.46;99684.03;5074199;28;20480;-68
2023/09/21 10:36:30;;;;;;;8.70;3.22;;;;;;;18.40;81.30;99685.53;5082336;28;20516;-69
2023/09/21 10:39:11;;;;;;;6.00;3.30;;;;;;;18.42;81.36;99671.13;5089060;28;20039;-68
2023/09/21 10:41:43;;;;;;;5.13;3.63;;;;;;;18.42;82.21;99654.28;5085756;28;20055;-72
2023/09/21 10:44:09;;;;;;;3.80;2.97;;;;;;;18.45;81.40;99665.66;5089520;28;20098;-73
2023/09/21 10:46:35;;;;;;;4.00;2.33;;;;;;;18.48;81.49;99669.81;5083837;28;20447;-69
2023/09/21 10:49:03;;;;;;;2.97;2.35;;;;;;;18.47;81.71;99659.69;5091485;28;20039;-70
2023/09/21 10:51:29;;;;;;;2.90;2.22;;;;;;;18.49;81.91;99655.41;5095776;28;20404;-72
2023/09/21 10:53:58;;;;;;;2.65;2.10;;;;;;;18.49;80.26;99652.59;5085192;28;20020;-70
2023/09/21 10:56:25;;;;;;;2.83;2.10;;;;;;;18.50;80.84;99648.63;5085211;28;20093;-69
2023/09/21 10:58:50;;;;;;;3.47;2.30;;;;;;;18.50;80.60;99639.38;5079192;28;20038;-70
2023/09/21 11:01:19;;;;;;;3.70;2.10;;;;;;;18.52;80.76;99634.25;5082095;28;20027;-67
2023/09/21 11:03:48;;;;;;;3.10;2.08;;;;;;;18.54;80.15;99626.28;5083976;28;20056;-72
2023/09/21 11:06:17;;;;;;;3.28;2.05;;;;;;;18.54;80.10;99617.88;5091561;28;20062;-68
2023/09/21 11:08:50;;;;;;;2.83;1.80;;;;;;;18.53;80.66;99624.66;5090592;28;20596;-72
2023/09/21 11:11:16;;;;;;;3.80;2.28;;;;;;;18.55;80.12;99611.94;5079172;28;20030;-70
2023/09/21 11:13:43;;;;;;;3.22;2.20;;;;;;;18.56;80.03;99621.19;5083796;28;20537;-71
2023/09/21 11:16:14;;;;;;;3.13;1.88;;;;;;;18.55;80.01;99620.34;5091008;28;20043;-70
2023/09/21 11:18:39;;;;;;;3.30;2.20;;;;;;;18.59;79.64;99612.06;5089137;28;20034;-69
2023/09/21 11:21:09;;;;;;;3.17;2.05;;;;;;;18.61;79.57;99612.56;5074182;28;20033;-68
2023/09/21 11:23:35;;;;;;;3.95;1.75;;;;;;;18.57;80.26;99608.78;5091643;28;20027;-68
2023/09/21 11:26:00;;;;;;;2.38;1.70;;;;;;;18.60;79.38;99610.91;5091852;28;20361;-68
2023/09/21 11:28:26;;;;;;;2.83;2.17;;;;;;;18.62;79.01;99611.38;5082476;28;20038;-67
2023/09/21 11:30:53;;;;;;;2.30;1.75;;;;;;;18.62;77.91;99615.00;5073559;28;20503;-70
2023/09/21 11:33:21;;;;;;;2.42;2.00;;;;;;;18.67;79.02;99644.09;5087835;28;20526;-73
2023/09/21 11:35:47;;;;;;;1.95;1.85;;;;;;;18.60;79.10;99641.81;5091262;28;20120;-69
2023/09/21 11:38:14;;;;;;;3.88;1.83;;;;;;;18.58;78.97;99641.31;5083662;28;20475;-68